Time;durP1;ratioP1;P1;durP2;ratioP2;P2;SDS_P1;SDS_P2;PMS_P1;PMS_P2;Temp;Humidity;BMP_temperature;BMP_pressure;BME280_temperature;BME280_humidity;BME280_pressure;Samples;Min_cycle;Max_cycle;Signal;HPM_P1;HPM_P2
2023/07/27 00:01:46;;;;;;;;;;;14.10;99.90;;;;;;4973104;28;20374;-42
2023/07/27 00:04:12;;;;;;;;;;;14.00;99.90;;;;;;4972944;28;19944;-42
2023/07/27 00:06:39;;;;;;;;;;;14.00;99.90;;;;;;4973680;28;19979;-42
2023/07/27 00:09:07;;;;;;;;;;;14.00;99.90;;;;;;4973362;28;19926;-42
2023/07/27 00:11:34;;;;;;;;;;;14.00;99.90;;;;;;4972121;28;19980;-42
2023/07/27 00:14:00;;;;;;;;;;;14.00;99.90;;;;;;4973192;28;20367;-42
2023/07/27 00:16:27;;;;;;;;;;;14.00;99.90;;;;;;4953351;28;20385;-42
2023/07/27 00:18:54;;;;;;;;;;;14.00;99.90;;;;;;4971930;28;20022;-42
2023/07/27 00:21:21;;;;;;;;;;;14.00;99.90;;;;;;4972872;28;20028;-42
2023/07/27 00:23:47;;;;;;;;;;;14.00;99.90;;;;;;4954946;28;19926;-41
2023/07/27 00:26:15;;;;;;;;;;;14.00;99.90;;;;;;4958972;28;20371;-42
2023/07/27 00:28:42;;;;;;;;;;;14.00;99.90;;;;;;4973573;28;19925;-42
2023/07/27 00:31:09;;;;;;;;;;;14.00;99.90;;;;;;4945380;28;19933;-43
2023/07/27 00:33:35;;;;;;;;;;;14.10;99.90;;;;;;4965871;28;19984;-42
2023/07/27 00:36:02;;;;;;;;;;;14.10;99.90;;;;;;4975191;28;20019;-42
2023/07/27 00:38:29;;;;;;;;;;;14.10;99.90;;;;;;4976246;28;20004;-42
2023/07/27 00:40:55;;;;;;;;;;;14.10;99.90;;;;;;4958845;28;20464;-42
2023/07/27 00:43:23;;;;;;;;;;;14.10;99.90;;;;;;4975050;28;19929;-42
2023/07/27 00:45:50;;;;;;;;;;;14.10;99.90;;;;;;4975189;28;19977;-42
2023/07/27 00:48:17;;;;;;;;;;;14.10;99.90;;;;;;4975543;28;20220;-42
2023/07/27 00:50:43;;;;;;;;;;;14.10;99.90;;;;;;4957996;28;20451;-42
2023/07/27 00:53:10;;;;;;;;;;;14.10;99.90;;;;;;4976315;28;19929;-43
2023/07/27 00:55:37;;;;;;;;;;;14.10;99.90;;;;;;4958075;28;19929;-41
2023/07/27 00:58:04;;;;;;;;;;;14.10;99.90;;;;;;4957717;28;20370;-41
2023/07/27 01:00:32;;;;;;;;;;;14.10;99.90;;;;;;4975025;28;19929;-42
2023/07/27 01:03:00;;;;;;;;;;;14.10;99.90;;;;;;4975357;28;20306;-43
2023/07/27 01:05:27;;;;;;;;;;;14.10;99.90;;;;;;4959065;28;19932;-42
2023/07/27 01:07:54;;;;;;;;;;;14.10;99.90;;;;;;4974952;28;19922;-42
2023/07/27 01:10:20;;;;;;;;;;;14.20;99.90;;;;;;4975403;28;20385;-42
2023/07/27 01:12:47;;;;;;;;;;;14.10;99.90;;;;;;4958692;28;20012;-42
2023/07/27 01:15:15;;;;;;;;;;;14.20;99.90;;;;;;4974312;28;19929;-42
2023/07/27 01:17:44;;;;;;;;;;;14.20;99.90;;;;;;4974543;28;19972;-42
2023/07/27 01:20:15;;;;;;;;;;;14.20;99.90;;;;;;4956780;28;20425;-42
2023/07/27 01:23:03;;;;;;;;;;;14.20;99.90;;;;;;4958611;28;20432;-42
2023/07/27 01:25:38;;;;;;;;;;;14.30;99.90;;;;;;4958392;28;19998;-42
2023/07/27 01:28:07;;;;;;;;;;;14.30;99.90;;;;;;4957235;28;19965;-42
2023/07/27 01:30:51;;;;;;;;;;;14.20;99.90;;;;;;4957833;28;19951;-42
2023/07/27 01:33:18;;;;;;;;;;;14.20;99.90;;;;;;4974232;28;19944;-42
2023/07/27 01:35:47;;;;;;;;;;;14.20;99.90;;;;;;4974753;28;19985;-43
2023/07/27 01:38:13;;;;;;;;;;;14.20;99.90;;;;;;4974747;28;19977;-42
2023/07/27 01:40:40;;;;;;;;;;;14.20;99.90;;;;;;4975015;28;19926;-42
2023/07/27 01:43:07;;;;;;;;;;;14.30;99.90;;;;;;4956883;28;19973;-42
2023/07/27 01:45:34;;;;;;;;;;;14.30;99.90;;;;;;4974124;28;19929;-42
2023/07/27 01:48:02;;;;;;;;;;;14.30;99.90;;;;;;4974266;28;19953;-42
2023/07/27 01:50:28;;;;;;;;;;;14.30;99.90;;;;;;4956213;28;19922;-42
2023/07/27 01:52:55;;;;;;;;;;;14.30;99.90;;;;;;4968514;28;19922;-42
2023/07/27 01:55:22;;;;;;;;;;;14.30;99.90;;;;;;4966903;28;20390;-42
2023/07/27 01:57:49;;;;;;;;;;;14.40;99.90;;;;;;4946332;29;19934;-42
2023/07/27 02:00:15;;;;;;;;;;;14.30;99.90;;;;;;4961551;28;19976;-42
2023/07/27 02:02:43;;;;;;;;;;;14.30;99.90;;;;;;4973733;28;20334;-42
2023/07/27 02:05:11;;;;;;;;;;;14.30;99.90;;;;;;4975086;28;19976;-42
2023/07/27 02:07:37;;;;;;;;;;;14.30;99.90;;;;;;4956906;28;20389;-42
2023/07/27 02:10:04;;;;;;;;;;;14.30;99.90;;;;;;4956783;28;19922;-42
2023/07/27 02:12:31;;;;;;;;;;;14.30;99.90;;;;;;4973937;28;19933;-43
2023/07/27 02:14:58;;;;;;;;;;;14.30;99.90;;;;;;4973667;28;20398;-42
2023/07/27 02:17:26;;;;;;;;;;;14.30;99.90;;;;;;4974648;28;19961;-42
2023/07/27 02:19:53;;;;;;;;;;;14.30;99.90;;;;;;4972299;28;20370;-42
2023/07/27 02:22:21;;;;;;;;;;;14.40;99.90;;;;;;4973853;28;19965;-43
2023/07/27 02:24:47;;;;;;;;;;;14.30;99.90;;;;;;4974116;28;19991;-43
2023/07/27 02:27:14;;;;;;;;;;;14.30;99.90;;;;;;4972476;28;20449;-42
2023/07/27 02:29:41;;;;;;;;;;;14.30;99.90;;;;;;4972792;28;19938;-43
2023/07/27 02:32:07;;;;;;;;;;;14.30;99.90;;;;;;4974562;28;19962;-42
2023/07/27 02:34:34;;;;;;;;;;;14.30;99.90;;;;;;4973118;28;19926;-42
2023/07/27 02:37:01;;;;;;;;;;;14.30;99.90;;;;;;4974379;28;19980;-42
2023/07/27 02:39:29;;;;;;;;;;;14.30;99.90;;;;;;4972763;28;19922;-42
2023/07/27 02:41:56;;;;;;;;;;;14.30;99.90;;;;;;4957197;28;19922;-43
2023/07/27 02:44:22;;;;;;;;;;;14.30;99.90;;;;;;4971873;28;19922;-42
2023/07/27 02:46:49;;;;;;;;;;;14.40;99.90;;;;;;4956328;28;19933;-43
2023/07/27 02:49:16;;;;;;;;;;;14.30;99.90;;;;;;4972619;28;19929;-42
2023/07/27 02:51:42;;;;;;;;;;;14.30;99.90;;;;;;4955692;28;20012;-43
2023/07/27 02:54:09;;;;;;;;;;;14.30;99.90;;;;;;4973105;28;20441;-42
2023/07/27 02:56:37;;;;;;;;;;;14.30;99.90;;;;;;4956378;28;19922;-43
2023/07/27 02:59:04;;;;;;;;;;;14.30;99.90;;;;;;4972846;28;19953;-42
2023/07/27 03:01:30;;;;;;;;;;;14.30;99.90;;;;;;4972834;28;19930;-42
2023/07/27 03:03:57;;;;;;;;;;;14.30;99.90;;;;;;4972750;28;20346;-42
2023/07/27 03:06:24;;;;;;;;;;;14.30;99.90;;;;;;4955469;28;19922;-42
2023/07/27 03:08:50;;;;;;;;;;;14.30;99.90;;;;;;4973840;28;19930;-43
2023/07/27 03:11:17;;;;;;;;;;;14.30;99.90;;;;;;4955695;28;19976;-42
2023/07/27 03:13:45;;;;;;;;;;;14.30;99.90;;;;;;4972694;28;19985;-41
2023/07/27 03:16:12;;;;;;;;;;;14.30;99.90;;;;;;4972920;28;19922;-42
2023/07/27 03:18:38;;;;;;;;;;;14.30;99.90;;;;;;4955515;28;20341;-42
2023/07/27 03:21:05;;;;;;;;;;;14.30;99.90;;;;;;4956701;28;19926;-41
2023/07/27 03:23:33;;;;;;;;;;;14.30;99.90;;;;;;4972788;28;19922;-42
2023/07/27 03:25:59;;;;;;;;;;;14.20;99.90;;;;;;4955207;28;20434;-42
2023/07/27 03:28:26;;;;;;;;;;;14.20;99.90;;;;;;4972255;28;19949;-41
2023/07/27 03:30:54;;;;;;;;;;;14.20;99.90;;;;;;4972683;28;19926;-42
2023/07/27 03:33:21;;;;;;;;;;;14.20;99.90;;;;;;4956524;28;19983;-42
2023/07/27 03:35:47;;;;;;;;;;;14.20;99.90;;;;;;4972917;28;19926;-42
2023/07/27 03:38:14;;;;;;;;;;;14.20;99.90;;;;;;4971983;28;20394;-42
2023/07/27 03:40:41;;;;;;;;;;;14.20;99.90;;;;;;4972633;28;19926;-42
2023/07/27 03:43:07;;;;;;;;;;;14.20;99.90;;;;;;4971101;28;20020;-41
2023/07/27 03:45:34;;;;;;;;;;;14.20;99.90;;;;;;4967057;28;20039;-42
2023/07/27 03:48:02;;;;;;;;;;;14.20;99.90;;;;;;4964691;28;19926;-42
2023/07/27 03:50:29;;;;;;;;;;;14.20;99.90;;;;;;4989780;28;20046;-41
2023/07/27 03:52:57;;;;;;;;;;;14.10;99.90;;;;;;4991288;28;19921;-41
2023/07/27 03:55:23;;;;;;;;;;;14.20;99.90;;;;;;4989224;28;19929;-41
2023/07/27 03:57:50;;;;;;;;;;;14.10;99.90;;;;;;4993137;28;19992;-41
2023/07/27 04:00:17;;;;;;;;;;;14.10;99.90;;;;;;4992644;28;20062;-42
2023/07/27 04:02:43;;;;;;;;;;;14.10;99.90;;;;;;4994206;28;19928;-41
2023/07/27 04:05:11;;;;;;;;;;;14.10;99.90;;;;;;4996634;28;20104;-41
2023/07/27 04:07:38;;;;;;;;;;;14.10;99.90;;;;;;4994239;28;20314;-42
2023/07/27 04:10:05;;;;;;;;;;;14.20;99.90;;;;;;4994397;28;19984;-41
2023/07/27 04:12:33;;;;;;;;;;;14.20;99.90;;;;;;4994510;28;20275;-41
2023/07/27 04:14:59;;;;;;;;;;;14.20;99.90;;;;;;4979294;28;19953;-41
2023/07/27 04:17:26;;;;;;;;;;;14.20;99.90;;;;;;4995993;28;20405;-41
2023/07/27 04:19:53;;;;;;;;;;;14.20;99.90;;;;;;4966536;28;19969;-42
2023/07/27 04:22:21;;;;;;;;;;;14.20;99.90;;;;;;4975206;28;19922;-42
2023/07/27 04:24:47;;;;;;;;;;;14.20;99.90;;;;;;4976350;28;19965;-41
2023/07/27 04:27:14;;;;;;;;;;;14.20;99.90;;;;;;4983573;28;19929;-42
2023/07/27 04:29:41;;;;;;;;;;;14.10;99.90;;;;;;4976771;28;19922;-42
2023/07/27 04:32:08;;;;;;;;;;;14.10;99.90;;;;;;4978896;28;20389;-42
2023/07/27 04:34:34;;;;;;;;;;;14.10;99.90;;;;;;4979226;28;20386;-42
2023/07/27 04:37:01;;;;;;;;;;;14.10;99.90;;;;;;4972270;28;20020;-43
2023/07/27 04:39:29;;;;;;;;;;;14.20;99.90;;;;;;4982994;28;19972;-42
2023/07/27 04:41:56;;;;;;;;;;;14.20;99.90;;;;;;4974973;28;19958;-42
2023/07/27 04:44:22;;;;;;;;;;;14.20;99.90;;;;;;4978332;28;19961;-42
2023/07/27 04:46:49;;;;;;;;;;;14.20;99.90;;;;;;4978338;28;20340;-43
2023/07/27 04:49:16;;;;;;;;;;;14.20;99.90;;;;;;4995080;28;19992;-42
2023/07/27 04:51:42;;;;;;;;;;;14.20;99.90;;;;;;4994247;28;19922;-42
2023/07/27 04:54:09;;;;;;;;;;;14.20;99.90;;;;;;4977402;28;19968;-42
2023/07/27 04:56:37;;;;;;;;;;;14.20;99.90;;;;;;4994802;28;19963;-42
2023/07/27 04:59:04;;;;;;;;;;;14.20;99.90;;;;;;4976054;28;19922;-42
2023/07/27 05:01:31;;;;;;;;;;;14.20;99.90;;;;;;4971076;28;19969;-42
2023/07/27 05:03:57;;;;;;;;;;;14.20;99.90;;;;;;4984727;28;19921;-42
2023/07/27 05:06:24;;;;;;;;;;;14.20;99.90;;;;;;4976772;28;20349;-42
2023/07/27 05:08:51;;;;;;;;;;;14.20;99.90;;;;;;4994025;28;19921;-42
2023/07/27 05:11:17;;;;;;;;;;;14.20;99.90;;;;;;4995107;28;19926;-41
2023/07/27 05:13:45;;;;;;;;;;;14.20;99.90;;;;;;4994213;28;19921;-42
2023/07/27 05:16:12;;;;;;;;;;;14.20;99.90;;;;;;4994070;28;20332;-41
2023/07/27 05:18:39;;;;;;;;;;;14.30;99.90;;;;;;4993860;28;19922;-41
2023/07/27 05:21:05;;;;;;;;;;;14.30;99.90;;;;;;4977036;28;20002;-41
2023/07/27 05:23:32;;;;;;;;;;;14.20;99.90;;;;;;4978010;28;19940;-42
2023/07/27 05:25:59;;;;;;;;;;;14.30;99.90;;;;;;4994018;28;19922;-42
2023/07/27 05:28:26;;;;;;;;;;;14.30;99.90;;;;;;4977247;28;19921;-42
2023/07/27 05:30:54;;;;;;;;;;;14.30;99.90;;;;;;4994227;28;19922;-41
2023/07/27 05:33:21;;;;;;;;;;;14.30;99.90;;;;;;4993463;28;19925;-42
2023/07/27 05:35:48;;;;;;;;;;;14.30;99.90;;;;;;4994791;28;19925;-41
2023/07/27 05:38:15;;;;;;;;;;;14.30;99.90;;;;;;4976884;28;19961;-41
2023/07/27 05:40:42;;;;;;;;;;;14.40;99.90;;;;;;4993742;28;19930;-41
2023/07/27 05:43:08;;;;;;;;;;;14.40;99.90;;;;;;4993926;28;19921;-42
2023/07/27 05:45:36;;;;;;;;;;;14.50;99.90;;;;;;4962144;28;19922;-42
2023/07/27 05:48:05;;;;;;;;;;;14.40;99.90;;;;;;4962296;28;20462;-41
2023/07/27 05:50:31;;;;;;;;;;;14.40;99.90;;;;;;4972383;28;19926;-42
2023/07/27 05:52:58;;;;;;;;;;;14.40;99.90;;;;;;4972668;28;19949;-41
2023/07/27 05:55:25;;;;;;;;;;;14.40;99.90;;;;;;4973711;28;19929;-41
2023/07/27 05:57:51;;;;;;;;;;;14.50;99.90;;;;;;4973012;28;19925;-42
2023/07/27 06:00:18;;;;;;;;;;;14.50;99.90;;;;;;4974399;28;19969;-41
2023/07/27 06:02:45;;;;;;;;;;;14.50;99.90;;;;;;4974195;28;19954;-41
2023/07/27 06:05:13;;;;;;;;;;;14.50;99.90;;;;;;4973119;28;19926;-41
2023/07/27 06:07:40;;;;;;;;;;;14.50;99.90;;;;;;4946285;28;20374;-41
2023/07/27 06:10:07;;;;;;;;;;;14.60;99.90;;;;;;4949554;28;20243;-42
2023/07/27 06:12:34;;;;;;;;;;;14.60;99.90;;;;;;4954444;28;20397;-42
2023/07/27 06:15:00;;;;;;;;;;;14.70;99.90;;;;;;4957689;28;19929;-42
2023/07/27 06:17:28;;;;;;;;;;;14.70;99.90;;;;;;4955343;28;19925;-41
2023/07/27 06:19:54;;;;;;;;;;;14.70;99.90;;;;;;4972640;28;19921;-42
2023/07/27 06:22:22;;;;;;;;;;;14.70;99.90;;;;;;4972099;28;19921;-42
2023/07/27 06:24:49;;;;;;;;;;;14.80;99.90;;;;;;4955495;28;19922;-41
2023/07/27 06:27:16;;;;;;;;;;;14.80;99.90;;;;;;4974654;28;20285;-41
2023/07/27 06:29:43;;;;;;;;;;;14.80;99.90;;;;;;4972340;28;19926;-42
2023/07/27 06:32:09;;;;;;;;;;;14.80;99.90;;;;;;4972514;28;19926;-42
2023/07/27 06:34:36;;;;;;;;;;;14.90;99.90;;;;;;4959129;28;19922;-43
2023/07/27 06:37:03;;;;;;;;;;;14.80;99.90;;;;;;4951342;28;19976;-42
2023/07/27 06:39:31;;;;;;;;;;;14.80;99.90;;;;;;4956051;28;19969;-42
2023/07/27 06:41:57;;;;;;;;;;;14.90;99.90;;;;;;4971615;28;19967;-42
2023/07/27 06:44:24;;;;;;;;;;;14.90;99.90;;;;;;4949139;28;19929;-42
2023/07/27 06:46:51;;;;;;;;;;;14.90;99.90;;;;;;4964637;28;19930;-42
2023/07/27 06:49:17;;;;;;;;;;;14.90;99.90;;;;;;4964290;28;20017;-42
2023/07/27 06:51:44;;;;;;;;;;;14.90;99.90;;;;;;4956556;28;19922;-43
2023/07/27 06:54:11;;;;;;;;;;;14.90;99.90;;;;;;4973049;28;19929;-42
2023/07/27 06:56:39;;;;;;;;;;;15.00;99.90;;;;;;4972818;28;19926;-43
2023/07/27 06:59:05;;;;;;;;;;;15.00;99.90;;;;;;4955986;28;19922;-42
2023/07/27 07:01:32;;;;;;;;;;;15.00;99.90;;;;;;4955533;28;19933;-43
2023/07/27 07:03:59;;;;;;;;;;;15.00;99.90;;;;;;4973920;28;20393;-42
2023/07/27 07:06:25;;;;;;;;;;;15.10;99.90;;;;;;4973010;28;19922;-42
2023/07/27 07:08:52;;;;;;;;;;;15.10;99.90;;;;;;4974194;28;19932;-43
2023/07/27 07:11:19;;;;;;;;;;;15.10;99.90;;;;;;4956989;28;20291;-42
2023/07/27 07:13:47;;;;;;;;;;;15.20;99.90;;;;;;4957037;28;19929;-43
2023/07/27 07:16:14;;;;;;;;;;;15.20;99.90;;;;;;4972817;28;19985;-43
2023/07/27 07:18:42;;;;;;;;;;;15.20;99.90;;;;;;4956802;28;20405;-42
2023/07/27 07:21:08;;;;;;;;;;;15.20;99.90;;;;;;4973007;28;20358;-42
2023/07/27 07:23:35;;;;;;;;;;;15.20;99.90;;;;;;4971296;28;19988;-42
2023/07/27 07:26:02;;;;;;;;;;;15.30;99.90;;;;;;4966383;28;19969;-42
2023/07/27 07:28:28;;;;;;;;;;;15.30;99.90;;;;;;4956335;28;19973;-42
2023/07/27 07:30:56;;;;;;;;;;;15.20;99.90;;;;;;4973565;28;19922;-42
2023/07/27 07:33:23;;;;;;;;;;;15.30;99.90;;;;;;4973803;28;19922;-43
2023/07/27 07:35:50;;;;;;;;;;;15.30;99.90;;;;;;4960155;28;19922;-42
2023/07/27 07:38:16;;;;;;;;;;;15.30;99.90;;;;;;4977190;28;19984;-42
2023/07/27 07:40:46;;;;;;;;;;;15.30;99.90;;;;;;4977680;28;19922;-41
2023/07/27 07:43:13;;;;;;;;;;;15.30;99.90;;;;;;4977793;28;20016;-42
2023/07/27 07:45:39;;;;;;;;;;;15.30;99.90;;;;;;4986659;28;20338;-42
2023/07/27 07:48:07;;;;;;;;;;;15.30;99.90;;;;;;4978452;28;19957;-42
2023/07/27 07:50:36;;;;;;;;;;;15.30;99.90;;;;;;4995653;28;19922;-42
2023/07/27 07:53:05;;;;;;;;;;;15.30;99.90;;;;;;4996859;28;19921;-42
2023/07/27 07:55:34;;;;;;;;;;;15.30;99.90;;;;;;4979560;28;20202;-43
2023/07/27 07:58:01;;;;;;;;;;;15.40;99.90;;;;;;4996690;28;19965;-42
2023/07/27 08:00:27;;;;;;;;;;;15.30;99.90;;;;;;4996130;28;19921;-42
2023/07/27 08:02:54;;;;;;;;;;;15.40;99.90;;;;;;4996633;28;19955;-41
2023/07/27 08:05:22;;;;;;;;;;;15.40;99.90;;;;;;4996478;28;19976;-43
2023/07/27 08:07:49;;;;;;;;;;;15.40;99.90;;;;;;4978341;28;19926;-43
2023/07/27 08:10:15;;;;;;;;;;;15.40;99.90;;;;;;4979474;28;19968;-43
2023/07/27 08:12:42;;;;;;;;;;;15.50;99.90;;;;;;4996375;28;19928;-42
2023/07/27 08:15:09;;;;;;;;;;;15.50;99.90;;;;;;4977807;28;20378;-42
2023/07/27 08:17:36;;;;;;;;;;;15.50;99.90;;;;;;4996243;28;19922;-43
2023/07/27 08:20:03;;;;;;;;;;;15.50;99.90;;;;;;4978994;28;19926;-42
2023/07/27 08:22:31;;;;;;;;;;;15.50;99.90;;;;;;4978889;28;19925;-42
2023/07/27 08:24:58;;;;;;;;;;;15.60;99.90;;;;;;4994541;28;19926;-42
2023/07/27 08:27:24;;;;;;;;;;;15.60;99.90;;;;;;4995984;28;19921;-41
2023/07/27 08:29:52;;;;;;;;;;;15.60;99.90;;;;;;4995030;28;19921;-42
2023/07/27 08:32:18;;;;;;;;;;;15.60;99.90;;;;;;4977746;28;20008;-42
2023/07/27 08:34:45;;;;;;;;;;;15.70;99.90;;;;;;4989777;28;20294;-41
2023/07/27 08:37:12;;;;;;;;;;;15.70;99.90;;;;;;4987555;28;19973;-42
2023/07/27 08:39:40;;;;;;;;;;;15.70;99.90;;;;;;4976791;28;19921;-42
2023/07/27 08:42:06;;;;;;;;;;;15.70;99.90;;;;;;4992551;28;19972;-42
2023/07/27 08:44:33;;;;;;;;;;;15.70;99.90;;;;;;4991967;28;20011;-42
2023/07/27 08:47:00;;;;;;;;;;;15.80;99.90;;;;;;4988801;28;19930;-43
2023/07/27 08:49:27;;;;;;;;;;;15.80;99.90;;;;;;4995045;28;19976;-41
2023/07/27 08:51:53;;;;;;;;;;;15.80;99.90;;;;;;4989436;28;19930;-42
2023/07/27 08:54:20;;;;;;;;;;;15.80;99.90;;;;;;4993397;28;20342;-42
2023/07/27 08:56:48;;;;;;;;;;;15.90;99.90;;;;;;4993843;28;19949;-42
2023/07/27 08:59:15;;;;;;;;;;;15.90;99.90;;;;;;4994261;28;20174;-41
2023/07/27 09:01:42;;;;;;;;;;;15.90;99.90;;;;;;4977421;28;19925;-42
2023/07/27 09:04:08;;;;;;;;;;;15.80;99.90;;;;;;4994119;28;20381;-42
2023/07/27 09:06:38;;;;;;;;;;;15.80;99.90;;;;;;4995670;28;19969;-42
2023/07/27 09:09:12;;;;;;;;;;;15.90;99.90;;;;;;4992985;28;19972;-42
2023/07/27 09:11:39;;;;;;;;;;;15.90;99.90;;;;;;4994128;28;19976;-42
2023/07/27 09:14:07;;;;;;;;;;;16.00;99.90;;;;;;4994673;28;19961;-42
2023/07/27 09:16:34;;;;;;;;;;;16.00;99.90;;;;;;4993796;28;19969;-41
2023/07/27 09:19:01;;;;;;;;;;;16.10;99.90;;;;;;4995396;28;20349;-41
2023/07/27 09:21:28;;;;;;;;;;;16.10;99.90;;;;;;4994166;28;20394;-42
2023/07/27 09:23:57;;;;;;;;;;;16.20;99.90;;;;;;4994435;28;19965;-42
2023/07/27 09:26:24;;;;;;;;;;;16.20;99.90;;;;;;4972035;28;20386;-41
2023/07/27 09:28:51;;;;;;;;;;;16.30;99.90;;;;;;4992005;28;20305;-42
2023/07/27 09:31:19;;;;;;;;;;;16.30;99.90;;;;;;4994933;28;19922;-41
2023/07/27 09:33:46;;;;;;;;;;;16.30;99.90;;;;;;4977480;28;19922;-41
2023/07/27 09:36:12;;;;;;;;;;;16.40;99.90;;;;;;4976688;28;20277;-41
2023/07/27 09:38:39;;;;;;;;;;;16.40;99.90;;;;;;4994439;28;19921;-42
2023/07/27 09:41:09;;;;;;;;;;;16.40;99.90;;;;;;4993398;28;19969;-41
2023/07/27 09:43:37;;;;;;;;;;;16.50;99.90;;;;;;4975579;28;19922;-41
2023/07/27 09:46:04;;;;;;;;;;;16.50;99.90;;;;;;4989416;28;19932;-42
2023/07/27 09:48:32;;;;;;;;;;;16.50;99.90;;;;;;4994048;28;19921;-42
2023/07/27 09:50:59;;;;;;;;;;;16.60;99.90;;;;;;4976482;28;19984;-42
2023/07/27 09:53:26;;;;;;;;;;;16.60;99.90;;;;;;4994037;28;20440;-41
2023/07/27 09:55:52;;;;;;;;;;;16.60;99.90;;;;;;4975709;28;19928;-42
2023/07/27 09:58:19;;;;;;;;;;;16.70;99.90;;;;;;4993365;28;19925;-42
2023/07/27 10:00:46;;;;;;;;;;;16.70;99.90;;;;;;4993173;28;19922;-42
2023/07/27 10:03:13;;;;;;;;;;;16.80;99.90;;;;;;4977451;28;19922;-42
2023/07/27 10:05:41;;;;;;;;;;;16.80;99.90;;;;;;4977179;28;19976;-41
2023/07/27 10:08:07;;;;;;;;;;;16.90;99.90;;;;;;4976334;28;19921;-42
2023/07/27 10:10:38;;;;;;;;;;;16.90;99.90;;;;;;4994029;28;19972;-42
2023/07/27 10:13:05;;;;;;;;;;;17.00;99.90;;;;;;4994322;28;20325;-42
2023/07/27 10:15:32;;;;;;;;;;;17.10;99.90;;;;;;4975698;28;19933;-42
2023/07/27 10:17:59;;;;;;;;;;;17.10;99.90;;;;;;4994417;28;19922;-43
2023/07/27 10:20:26;;;;;;;;;;;17.10;99.90;;;;;;4989373;28;19921;-42
2023/07/27 10:22:56;;;;;;;;;;;17.10;99.90;;;;;;4975551;28;19930;-42
2023/07/27 10:25:23;;;;;;;;;;;17.20;99.90;;;;;;4993091;28;19922;-42
2023/07/27 10:27:56;;;;;;;;;;;17.20;99.90;;;;;;4993834;28;19921;-42
2023/07/27 10:30:23;;;;;;;;;;;17.30;99.90;;;;;;4976817;28;20293;-42
2023/07/27 10:33:19;;;;;;;;;;;17.30;99.90;;;;;;4993266;28;20034;-42
2023/07/27 10:36:00;;;;;;;;;;;17.40;99.90;;;;;;4948223;28;19932;-42
2023/07/27 10:38:28;;;;;;;;;;;17.40;99.90;;;;;;4976371;28;19932;-42
2023/07/27 10:40:55;;;;;;;;;;;17.40;99.90;;;;;;4994002;28;20366;-43
2023/07/27 10:43:22;;;;;;;;;;;17.50;99.90;;;;;;4993805;28;19928;-41
2023/07/27 10:45:52;;;;;;;;;;;17.50;99.90;;;;;;4992497;28;19968;-41
2023/07/27 10:48:19;;;;;;;;;;;17.60;99.90;;;;;;4993538;28;19921;-42
2023/07/27 10:50:46;;;;;;;;;;;17.60;99.90;;;;;;4993641;28;20274;-42
2023/07/27 10:53:12;;;;;;;;;;;17.70;99.90;;;;;;4975579;28;20381;-42
2023/07/27 10:55:40;;;;;;;;;;;17.70;99.90;;;;;;4992287;28;20259;-42
2023/07/27 10:58:07;;;;;;;;;;;17.70;99.90;;;;;;4983374;28;20337;-41
2023/07/27 11:00:35;;;;;;;;;;;17.80;99.90;;;;;;4975961;28;19925;-42
2023/07/27 11:03:01;;;;;;;;;;;17.80;99.90;;;;;;4976374;28;19921;-42
2023/07/27 11:05:28;;;;;;;;;;;17.90;99.90;;;;;;4983811;28;19928;-42
2023/07/27 11:07:56;;;;;;;;;;;17.90;99.90;;;;;;4991133;28;19926;-41
2023/07/27 11:10:29;;;;;;;;;;;18.00;99.90;;;;;;4990937;28;19926;-41
2023/07/27 11:12:57;;;;;;;;;;;18.00;99.90;;;;;;4976512;28;19922;-42
2023/07/27 11:15:24;;;;;;;;;;;18.00;99.90;;;;;;4993383;28;19921;-42
2023/07/27 11:17:51;;;;;;;;;;;18.10;99.90;;;;;;4976209;28;19928;-42
2023/07/27 11:20:20;;;;;;;;;;;18.10;99.90;;;;;;4992409;28;19922;-42
2023/07/27 11:22:47;;;;;;;;;;;18.20;99.90;;;;;;4975752;28;19953;-41
2023/07/27 11:25:13;;;;;;;;;;;18.30;99.90;;;;;;4992037;28;19926;-41
2023/07/27 11:27:40;;;;;;;;;;;18.30;99.90;;;;;;4975592;28;19925;-41
2023/07/27 11:30:12;;;;;;;;;;;18.30;99.90;;;;;;4992060;28;19922;-42
2023/07/27 11:32:38;;;;;;;;;;;18.40;99.90;;;;;;4975946;28;19922;-41
2023/07/27 11:35:05;;;;;;;;;;;18.40;99.90;;;;;;4992955;28;19929;-41
2023/07/27 11:37:32;;;;;;;;;;;18.40;99.90;;;;;;4975574;28;20294;-42
2023/07/27 11:39:59;;;;;;;;;;;18.50;99.90;;;;;;4976162;28;19992;-42
2023/07/27 11:42:26;;;;;;;;;;;18.50;99.90;;;;;;4975232;28;19961;-42
2023/07/27 11:44:53;;;;;;;;;;;18.50;99.90;;;;;;4991864;28;19926;-42
2023/07/27 11:47:22;;;;;;;;;;;18.60;99.90;;;;;;4992799;28;19929;-41
2023/07/27 11:49:49;;;;;;;;;;;18.60;99.90;;;;;;4975775;28;20009;-42
2023/07/27 11:52:18;;;;;;;;;;;18.60;99.90;;;;;;4992645;28;20381;-42
2023/07/27 11:54:45;;;;;;;;;;;18.60;99.90;;;;;;4992361;28;19980;-42
2023/07/27 11:57:14;;;;;;;;;;;18.60;99.90;;;;;;4993030;28;19922;-42
2023/07/27 11:59:41;;;;;;;;;;;18.70;99.90;;;;;;4992597;28;19988;-42
2023/07/27 12:02:07;;;;;;;;;;;18.70;99.90;;;;;;4992897;28;20351;-41
2023/07/27 12:04:35;;;;;;;;;;;18.70;99.90;;;;;;4992800;28;19926;-42
2023/07/27 12:07:02;;;;;;;;;;;18.70;99.90;;;;;;4974796;28;20437;-42
2023/07/27 12:09:29;;;;;;;;;;;18.70;99.90;;;;;;4992794;28;19925;-41
2023/07/27 12:11:56;;;;;;;;;;;18.70;99.90;;;;;;4975539;28;19929;-42
2023/07/27 12:14:22;;;;;;;;;;;18.70;99.90;;;;;;4990804;28;19921;-41
2023/07/27 12:16:49;;;;;;;;;;;18.80;99.90;;;;;;4991371;28;19921;-42
2023/07/27 12:19:16;;;;;;;;;;;18.80;99.90;;;;;;4971873;28;19968;-42
2023/07/27 12:21:47;;;;;;;;;;;18.80;99.90;;;;;;4976187;28;20024;-42
2023/07/27 12:24:13;;;;;;;;;;;18.70;99.90;;;;;;4978864;28;19928;-42
2023/07/27 12:26:40;;;;;;;;;;;18.80;99.90;;;;;;4977666;28;19921;-42
2023/07/27 12:29:07;;;;;;;;;;;18.90;99.90;;;;;;4995038;28;20386;-42
2023/07/27 12:31:34;;;;;;;;;;;18.90;99.90;;;;;;4978983;28;19977;-41
2023/07/27 12:34:00;;;;;;;;;;;18.90;99.90;;;;;;4977576;28;19922;-42
2023/07/27 12:36:27;;;;;;;;;;;18.90;99.90;;;;;;4979211;28;19922;-42
2023/07/27 12:38:55;;;;;;;;;;;18.90;99.90;;;;;;4978269;28;19984;-43
2023/07/27 12:41:22;;;;;;;;;;;19.00;99.90;;;;;;4977571;28;19922;-42
2023/07/27 12:43:48;;;;;;;;;;;19.00;99.90;;;;;;4978681;28;19922;-42
2023/07/27 12:46:15;;;;;;;;;;;19.10;99.90;;;;;;4995656;28;19976;-42
2023/07/27 12:48:43;;;;;;;;;;;19.10;99.90;;;;;;4976434;28;19957;-43
2023/07/27 12:51:10;;;;;;;;;;;19.20;99.90;;;;;;4991967;28;20362;-43
2023/07/27 12:53:36;;;;;;;;;;;19.20;99.90;;;;;;4983496;28;19930;-41
2023/07/27 12:56:04;;;;;;;;;;;19.30;99.90;;;;;;4995903;28;20341;-42
2023/07/27 12:58:31;;;;;;;;;;;19.40;99.90;;;;;;4995669;28;20432;-43
2023/07/27 13:00:58;;;;;;;;;;;19.40;99.90;;;;;;4993628;28;20293;-41
2023/07/27 13:03:24;;;;;;;;;;;19.50;99.90;;;;;;4992653;28;19968;-42
2023/07/27 13:05:51;;;;;;;;;;;19.60;99.90;;;;;;4982117;28;19957;-41
2023/07/27 13:08:18;;;;;;;;;;;19.60;99.90;;;;;;4995569;28;19984;-42
2023/07/27 13:10:44;;;;;;;;;;;19.70;99.90;;;;;;4995243;28;20358;-42
2023/07/27 13:13:13;;;;;;;;;;;19.70;99.90;;;;;;4995112;28;19922;-42
2023/07/27 13:15:40;;;;;;;;;;;19.80;99.90;;;;;;4995762;28;19922;-42
2023/07/27 13:18:07;;;;;;;;;;;19.80;99.90;;;;;;4977968;28;19947;-42
2023/07/27 13:20:33;;;;;;;;;;;19.80;99.90;;;;;;4994570;28;19928;-42
2023/07/27 13:23:00;;;;;;;;;;;19.80;99.90;;;;;;4975627;28;19922;-42
2023/07/27 13:25:27;;;;;;;;;;;19.80;99.90;;;;;;4978039;28;19921;-42
2023/07/27 13:27:54;;;;;;;;;;;19.80;99.90;;;;;;4992414;28;19978;-42
2023/07/27 13:30:23;;;;;;;;;;;19.80;99.90;;;;;;4977775;28;20370;-42
2023/07/27 13:32:49;;;;;;;;;;;19.80;99.90;;;;;;4977277;28;20013;-43
2023/07/27 13:35:16;;;;;;;;;;;19.80;99.90;;;;;;4993806;28;19921;-42
2023/07/27 13:37:43;;;;;;;;;;;19.90;99.90;;;;;;4977057;28;19980;-43
2023/07/27 13:40:10;;;;;;;;;;;19.90;99.90;;;;;;4994240;28;19922;-42
2023/07/27 13:42:37;;;;;;;;;;;19.90;99.90;;;;;;4993529;28;19932;-42
2023/07/27 13:45:04;;;;;;;;;;;19.90;99.90;;;;;;4975755;28;19922;-42
2023/07/27 13:47:32;;;;;;;;;;;19.90;99.90;;;;;;4977181;28;19922;-43
2023/07/27 13:49:59;;;;;;;;;;;20.00;99.90;;;;;;4992936;28;19925;-43
2023/07/27 13:52:26;;;;;;;;;;;20.00;99.90;;;;;;4993416;28;19925;-43
2023/07/27 13:54:53;;;;;;;;;;;20.00;99.90;;;;;;4991181;28;20016;-43
2023/07/27 13:57:19;;;;;;;;;;;20.10;99.90;;;;;;4975651;28;19976;-43
2023/07/27 13:59:46;;;;;;;;;;;20.20;99.90;;;;;;4942011;28;20327;-43
2023/07/27 14:02:13;;;;;;;;;;;20.20;99.90;;;;;;4992436;28;19922;-43
2023/07/27 14:04:42;;;;;;;;;;;20.30;99.90;;;;;;4991248;28;19929;-42
2023/07/27 14:07:09;;;;;;;;;;;20.30;99.90;;;;;;4988329;28;19928;-43
2023/07/27 14:09:36;;;;;;;;;;;20.30;99.90;;;;;;4992458;28;19937;-42
2023/07/27 14:12:04;;;;;;;;;;;20.40;99.90;;;;;;4991275;28;19972;-42
2023/07/27 14:14:30;;;;;;;;;;;20.30;99.90;;;;;;4938385;29;19923;-43
2023/07/27 14:16:57;;;;;;;;;;;20.30;99.90;;;;;;4980930;28;19926;-42